createdAt,value
2018-06-27T00:01:03.816Z,12.28
2018-06-27T00:06:03.313Z,11.78
2018-06-27T00:11:03.902Z,11.78
2018-06-27T00:16:03.191Z,11.68
2018-06-27T00:21:03.661Z,11.58
2018-06-27T00:26:03.863Z,11.98
2018-06-27T00:31:03.165Z,11.88
2018-06-27T00:36:03.666Z,11.98
2018-06-27T00:41:03.228Z,12.28
2018-06-27T00:46:03.520Z,11.98
2018-06-27T00:51:03.999Z,11.38
2018-06-27T00:56:03.245Z,11.28
2018-06-27T01:01:03.525Z,11.28
2018-06-27T01:06:03.974Z,11.28
2018-06-27T01:11:03.564Z,11.28
2018-06-27T01:16:03.823Z,11.18
2018-06-27T01:21:03.419Z,11.28
2018-06-27T01:26:03.552Z,11.18
2018-06-27T01:31:03.832Z,10.98
2018-06-27T01:36:03.360Z,10.98
2018-06-27T01:41:03.916Z,10.88
2018-06-27T01:46:03.190Z,10.68
2018-06-27T01:51:03.644Z,10.68
2018-06-27T01:56:03.862Z,10.78
2018-06-27T02:01:03.167Z,10.88
2018-06-27T02:06:03.657Z,10.58
2018-06-27T02:11:03.282Z,10.58
2018-06-27T02:16:03.564Z,10.39
2018-06-27T02:21:03.056Z,10.49
2018-06-27T02:26:03.272Z,10.58
2018-06-27T02:31:03.561Z,10.58
2018-06-27T02:36:03.043Z,10.49
2018-06-27T02:41:03.663Z,10.49
2018-06-27T02:46:02.949Z,10.49
2018-06-27T02:51:03.436Z,10.88
2018-06-27T02:56:03.661Z,10.98
2018-06-27T03:01:02.932Z,10.68
2018-06-27T03:06:03.426Z,10.19
2018-06-27T03:11:03.002Z,9.99
2018-06-27T03:16:03.269Z,9.99
2018-06-27T03:21:03.775Z,10.19
2018-06-27T03:26:02.978Z,10.39
2018-06-27T03:31:03.273Z,10.49
2018-06-27T03:36:03.799Z,10.09
2018-06-27T03:41:03.301Z,10.19
2018-06-27T03:46:03.567Z,10.19
2018-06-27T03:51:03.080Z,9.99
2018-06-27T03:56:03.284Z,9.89
2018-06-27T04:01:03.603Z,10.29
2018-06-27T04:06:03.046Z,10.78
2018-06-27T04:11:03.654Z,11.18
2018-06-27T04:16:02.960Z,10.58
2018-06-27T04:21:03.436Z,10.29
2018-06-27T04:26:03.285Z,10.68
2018-06-27T04:31:03.579Z,11.08
2018-06-27T04:36:03.244Z,11.18
2018-06-27T04:41:03.597Z,11.18
2018-06-27T04:46:03.897Z,11.08
2018-06-27T04:51:03.428Z,11.08
2018-06-27T04:56:03.803Z,11.18
2018-06-27T05:01:03.913Z,11.68
2018-06-27T05:06:03.364Z,11.88
2018-06-27T05:11:02.971Z,11.98
2018-06-27T05:16:03.337Z,12.08
2018-06-27T05:21:03.746Z,11.88
2018-06-27T05:26:02.934Z,11.88
2018-06-27T05:31:03.256Z,12.18
2018-06-27T05:36:03.701Z,12.28
2018-06-27T05:41:03.278Z,12.28
2018-06-27T05:46:03.560Z,12.18
2018-06-27T05:51:03.057Z,12.18
2018-06-27T05:56:03.248Z,12.28
2018-06-27T06:01:03.558Z,12.38
2018-06-27T06:06:04.099Z,12.58
2018-06-27T06:11:03.657Z,12.68
2018-06-27T06:16:03.894Z,12.78
2018-06-27T06:21:03.412Z,12.98
2018-06-27T06:26:03.605Z,13.28
2018-06-27T06:31:03.885Z,13.58
2018-06-27T06:36:03.369Z,13.78
2018-06-27T06:41:02.958Z,13.78
2018-06-27T06:46:03.435Z,14.18
2018-06-27T06:51:03.704Z,14.38
2018-06-27T06:56:03.909Z,14.38
2018-06-27T07:01:03.203Z,14.58
2018-06-27T07:06:03.623Z,14.68
2018-06-27T07:11:03.531Z,14.98
2018-06-27T07:16:03.528Z,15.08
2018-06-27T07:21:04.034Z,15.18
2018-06-27T07:26:03.268Z,15.48
2018-06-27T07:31:03.568Z,15.58
2018-06-27T07:36:04.305Z,15.88
2018-06-27T07:41:03.612Z,15.98
2018-06-27T07:46:03.908Z,16.08
2018-06-27T07:51:03.380Z,16.48
2018-06-27T07:56:03.611Z,16.58
2018-06-27T08:01:03.892Z,16.98
2018-06-27T08:06:03.345Z,17.08
2018-06-27T08:11:03.896Z,17.28
2018-06-27T08:16:03.223Z,17.48
2018-06-27T08:21:03.729Z,17.58
2018-06-27T08:26:04.383Z,17.88
2018-06-27T08:31:03.219Z,18.18
2018-06-27T08:36:03.682Z,18.68
2018-06-27T08:41:03.239Z,18.78
2018-06-27T08:46:03.534Z,19.08
2018-06-27T08:51:04.007Z,19.48
2018-06-27T08:56:03.174Z,19.68
2018-06-27T09:01:03.465Z,19.88
2018-06-27T09:06:03.982Z,20.18
2018-06-27T09:11:03.547Z,20.38
2018-06-27T09:16:03.798Z,20.68
2018-06-27T09:21:03.342Z,20.88
2018-06-27T09:26:03.525Z,21.18
2018-06-27T09:31:03.941Z,21.48
2018-06-27T09:36:03.330Z,21.78
2018-06-27T09:41:03.917Z,22.08
2018-06-27T09:46:03.191Z,22.13
2018-06-27T09:51:03.659Z,22.78
2018-06-27T09:56:03.900Z,22.98
2018-06-27T10:01:03.173Z,22.78
2018-06-27T10:06:03.623Z,22.93
2018-06-27T10:11:03.212Z,23.27
2018-06-27T10:16:03.500Z,23.10
2018-06-27T10:21:03.989Z,23.04
2018-06-27T10:26:03.207Z,23.04
2018-06-27T10:31:03.495Z,23.33
2018-06-27T10:36:04.012Z,23.43
2018-06-27T10:41:03.588Z,23.77
2018-06-27T10:46:03.831Z,23.81
2018-06-27T10:51:03.269Z,23.67
2018-06-27T10:56:03.450Z,23.93
2018-06-27T11:01:03.943Z,24.47
2018-06-27T11:06:03.219Z,23.93
2018-06-27T11:11:03.789Z,24.03
2018-06-27T11:16:03.102Z,24.59
2018-06-27T11:21:03.601Z,23.80
2018-06-27T11:26:03.787Z,23.55
2018-06-27T11:31:03.098Z,23.60
2018-06-27T11:36:03.555Z,23.32
2018-06-27T11:41:03.131Z,23.01
2018-06-27T11:46:03.415Z,23.52
2018-06-27T11:51:03.906Z,23.55
2018-06-27T11:56:03.132Z,23.88
2018-06-27T12:01:03.421Z,24.11
2018-06-27T12:06:03.872Z,23.28
2018-06-27T12:11:03.560Z,23.64
2018-06-27T12:16:03.772Z,24.08
2018-06-27T12:21:03.290Z,24.54
2018-06-27T12:26:03.544Z,23.65
2018-06-27T12:31:03.800Z,23.82
2018-06-27T12:36:03.320Z,24.20
2018-06-27T12:41:03.846Z,23.69
2018-06-27T12:46:03.140Z,23.96
2018-06-27T12:51:03.623Z,23.65
2018-06-27T12:56:03.813Z,23.67
2018-06-27T13:01:03.124Z,24.08
2018-06-27T13:06:03.586Z,23.02
2018-06-27T13:11:03.131Z,23.55
2018-06-27T13:16:03.412Z,22.63
2018-06-27T13:21:03.923Z,23.53
2018-06-27T13:26:03.123Z,22.98
2018-06-27T13:31:03.392Z,22.70
2018-06-27T13:36:03.864Z,23.23
2018-06-27T13:41:03.494Z,22.93
2018-06-27T13:46:03.751Z,23.30
2018-06-27T13:51:03.221Z,22.78
2018-06-27T13:56:03.460Z,23.45
2018-06-27T14:01:03.734Z,22.93
2018-06-27T14:06:03.221Z,22.36
2018-06-27T14:11:03.778Z,22.35
2018-06-27T14:16:03.123Z,22.11
2018-06-27T14:21:03.583Z,21.59
2018-06-27T14:26:03.867Z,21.61
2018-06-27T14:31:03.078Z,21.41
2018-06-27T14:36:03.595Z,21.60
2018-06-27T14:41:03.207Z,21.15
2018-06-27T14:46:03.469Z,21.20
2018-06-27T14:51:03.944Z,21.25
2018-06-27T14:56:03.162Z,20.66
2018-06-27T15:01:03.457Z,21.11
2018-06-27T15:06:03.933Z,20.66
2018-06-27T15:11:03.521Z,21.23
2018-06-27T15:16:03.826Z,21.06
2018-06-27T15:21:03.310Z,21.85
2018-06-27T15:26:03.499Z,21.80
2018-06-27T15:31:03.790Z,21.60
2018-06-27T15:36:03.273Z,21.22
2018-06-27T15:41:03.877Z,21.90
2018-06-27T15:46:03.187Z,21.03
2018-06-27T15:51:03.669Z,21.50
2018-06-27T15:56:03.864Z,21.46
2018-06-27T16:01:03.145Z,21.69
2018-06-27T16:06:03.651Z,21.60
2018-06-27T16:11:03.346Z,21.49
2018-06-27T16:16:03.530Z,21.20
2018-06-27T16:21:04.038Z,21.28
2018-06-27T16:26:03.263Z,21.00
2018-06-27T16:31:03.556Z,21.28
2018-06-27T16:36:04.024Z,21.21
2018-06-27T16:41:03.581Z,21.20
2018-06-27T16:46:03.867Z,21.19
2018-06-27T16:51:03.905Z,21.40
2018-06-27T16:56:03.533Z,21.05
2018-06-27T17:01:04.170Z,20.86
2018-06-27T17:06:03.278Z,20.95
2018-06-27T17:11:03.893Z,21.00
2018-06-27T17:16:03.181Z,20.88
2018-06-27T17:21:04.280Z,21.02
2018-06-27T17:26:03.862Z,20.50
2018-06-27T17:31:03.268Z,20.99
2018-06-27T17:36:03.674Z,20.27
2018-06-27T17:41:03.266Z,20.43
2018-06-27T17:46:03.549Z,20.06
2018-06-27T17:51:03.037Z,20.50
2018-06-27T17:56:03.272Z,20.12
2018-06-27T18:01:03.585Z,19.77
2018-06-27T18:06:03.054Z,19.84
2018-06-27T18:11:03.627Z,20.04
2018-06-27T18:16:03.894Z,19.86
2018-06-27T18:21:03.421Z,19.94
2018-06-27T18:26:03.634Z,19.55
2018-06-27T18:31:02.971Z,19.58
2018-06-27T18:36:03.452Z,19.70
2018-06-27T18:41:03.026Z,19.76
2018-06-27T18:46:03.309Z,19.78
2018-06-27T18:51:03.797Z,19.77
2018-06-27T18:56:02.977Z,19.68
2018-06-27T19:01:03.304Z,19.28
2018-06-27T19:06:03.729Z,19.14
2018-06-27T19:11:03.297Z,19.38
2018-06-27T19:16:03.586Z,19.43
2018-06-27T19:21:03.106Z,19.06
2018-06-27T19:26:03.333Z,19.14
2018-06-27T19:31:03.599Z,19.25
2018-06-27T19:36:03.055Z,19.17
2018-06-27T19:41:04.407Z,19.25
2018-06-27T19:46:02.934Z,19.15
2018-06-27T19:51:03.414Z,19.03
2018-06-27T19:56:03.617Z,19.01
2018-06-27T20:01:03.898Z,18.85
2018-06-27T20:06:03.345Z,19.02
2018-06-27T20:11:02.981Z,18.92
2018-06-27T20:16:03.598Z,18.89
2018-06-27T20:21:03.758Z,18.84
2018-06-27T20:26:03.003Z,18.65
2018-06-27T20:31:03.492Z,18.69
2018-06-27T20:36:03.730Z,18.68
2018-06-27T20:41:03.300Z,18.83
2018-06-27T20:46:03.587Z,18.83
2018-06-27T20:51:03.104Z,18.60
2018-06-27T20:56:03.294Z,18.46
2018-06-27T21:01:03.582Z,18.35
2018-06-27T21:06:03.100Z,18.32
2018-06-27T21:11:03.712Z,18.50
2018-06-27T21:16:02.992Z,18.72
2018-06-27T21:21:03.478Z,18.60
2018-06-27T21:26:03.835Z,18.60
2018-06-27T21:31:02.994Z,18.39
2018-06-27T21:36:03.472Z,18.08
2018-06-27T21:41:03.017Z,17.62
2018-06-27T21:46:03.294Z,17.60
2018-06-27T21:51:03.784Z,17.78
2018-06-27T21:56:02.940Z,17.58
2018-06-27T22:01:03.262Z,17.90
2018-06-27T22:06:03.727Z,17.80
2018-06-27T22:11:03.397Z,17.32
2018-06-27T22:16:03.587Z,17.00
2018-06-27T22:21:03.146Z,17.10
2018-06-27T22:26:03.350Z,17.15
2018-06-27T22:31:03.657Z,17.05
2018-06-27T22:36:03.128Z,16.89
2018-06-27T22:41:03.732Z,16.88
2018-06-27T22:46:03.014Z,17.40
2018-06-27T22:51:03.491Z,17.33
2018-06-27T22:56:03.742Z,17.05
2018-06-27T23:01:03.003Z,16.48
2018-06-27T23:06:03.475Z,16.28
2018-06-27T23:11:03.095Z,16.08
2018-06-27T23:16:03.342Z,16.08
2018-06-27T23:21:03.859Z,16.08
2018-06-27T23:26:03.073Z,16.78
2018-06-27T23:31:03.368Z,16.58
2018-06-27T23:36:03.831Z,15.88
2018-06-27T23:41:03.357Z,15.58
2018-06-27T23:46:03.714Z,15.38
2018-06-27T23:51:03.187Z,15.98
2018-06-27T23:56:03.369Z,16.78
